createdAt,value
2019-04-22T00:02:15.239Z,22.57
2019-04-22T00:04:56.195Z,22.17
2019-04-22T00:07:40.298Z,21.70
2019-04-22T00:12:42.441Z,23.03
2019-04-22T00:15:03.755Z,24.10
2019-04-22T00:17:48.227Z,25.53
2019-04-22T00:22:32.102Z,24.63
2019-04-22T00:25:07.945Z,22.37
2019-04-22T00:27:35.631Z,28.57
2019-04-22T00:30:07.320Z,23.60
2019-04-22T00:32:33.749Z,23.50
2019-04-22T00:34:59.913Z,24.73
2019-04-22T00:37:39.057Z,24.07
2019-04-22T00:39:58.899Z,22.37
2019-04-22T00:42:34.792Z,22.77
2019-04-22T00:50:14.570Z,23.20
2019-04-22T00:52:28.680Z,25.90
2019-04-22T00:54:59.462Z,22.60
2019-04-22T00:57:29.137Z,23.50
2019-04-22T00:59:58.328Z,25.00
2019-04-22T01:02:28.969Z,25.10
2019-04-22T01:07:27.113Z,25.73
2019-04-22T01:09:58.626Z,26.73
2019-04-22T01:12:28.505Z,25.13
2019-04-22T01:14:59.158Z,23.93
2019-04-22T01:17:19.742Z,23.37
2019-04-22T01:20:01.160Z,23.10
2019-04-22T01:22:22.404Z,20.13
2019-04-22T01:24:46.646Z,22.30
2019-04-22T01:27:11.549Z,21.70
2019-04-22T01:29:39.753Z,22.40
2019-04-22T01:31:56.371Z,22.97
2019-04-22T01:34:40.783Z,22.60
2019-04-22T01:37:13.782Z,22.33
2019-04-22T01:39:50.073Z,26.40
2019-04-22T01:42:15.742Z,23.67
2019-04-22T01:44:45.437Z,22.83
2019-04-22T01:47:22.323Z,23.17
2019-04-22T01:49:45.868Z,25.40
2019-04-22T01:52:17.032Z,24.50
2019-04-22T01:54:52.169Z,23.03
2019-04-22T01:57:09.914Z,22.73
2019-04-22T01:59:37.063Z,24.23
2019-04-22T02:02:16.277Z,22.67
2019-04-22T02:07:16.913Z,24.93
2019-04-22T02:09:45.813Z,24.70
2019-04-22T02:12:13.073Z,26.73
2019-04-22T02:14:41.939Z,25.77
2019-04-22T02:17:14.715Z,26.63
2019-04-22T02:19:37.171Z,28.70
2019-04-22T02:22:07.093Z,27.50
2019-04-22T02:24:41.215Z,27.50
2019-04-22T02:27:10.981Z,27.10
2019-04-22T02:29:34.732Z,23.50
2019-04-22T02:32:17.207Z,26.60
2019-04-22T02:34:41.476Z,23.30
2019-04-22T02:37:06.352Z,25.27
2019-04-22T02:39:36.119Z,24.83
2019-04-22T02:42:24.216Z,23.23
2019-04-22T02:49:48.460Z,19.37
2019-04-22T02:52:06.433Z,21.27
2019-04-22T02:57:04.568Z,23.53
2019-04-22T02:59:32.578Z,21.73
2019-04-22T03:01:53.226Z,22.77
2019-04-22T03:04:29.993Z,21.23
2019-04-22T03:06:46.063Z,20.47
2019-04-22T03:09:33.719Z,21.33
2019-04-22T03:12:11.425Z,20.37
2019-04-22T03:14:21.977Z,22.60
2019-04-22T03:21:54.339Z,23.50
2019-04-22T03:24:25.588Z,22.00
2019-04-22T03:26:58.550Z,21.30
2019-04-22T03:30:00.898Z,26.60
2019-04-22T03:32:40.657Z,21.30
2019-04-22T03:37:21.466Z,22.03
2019-04-22T03:39:59.724Z,22.77
2019-04-22T03:42:07.071Z,21.47
2019-04-22T03:47:19.415Z,17.67
2019-04-22T03:54:43.721Z,18.73
2019-04-22T04:04:32.732Z,17.20
2019-04-22T04:07:11.539Z,18.70
2019-04-22T04:09:34.447Z,19.40
2019-04-22T04:12:03.743Z,16.87
2019-04-22T04:14:35.980Z,16.77
2019-04-22T04:19:35.058Z,19.27
2019-04-22T04:22:00.683Z,20.93
2019-04-22T04:24:57.986Z,19.67
2019-04-22T04:32:15.887Z,17.03
2019-04-22T04:34:42.978Z,16.37
2019-04-22T04:37:07.519Z,16.73
2019-04-22T04:39:28.166Z,16.60
2019-04-22T04:44:35.094Z,16.30
2019-04-22T04:49:24.101Z,20.47
2019-04-22T04:51:56.031Z,16.80
2019-04-22T05:06:52.109Z,14.17
2019-04-22T05:11:51.953Z,14.63
2019-04-22T05:14:12.417Z,13.33
2019-04-22T05:16:41.077Z,15.77
2019-04-22T05:19:15.446Z,14.10
2019-04-22T05:21:53.437Z,11.93
2019-04-22T05:24:10.810Z,14.67
2019-04-22T05:26:52.799Z,12.83
2019-04-22T05:29:05.424Z,12.93
2019-04-22T05:34:04.436Z,15.23
2019-04-22T05:36:30.953Z,15.70
2019-04-22T05:39:00.154Z,14.37
2019-04-22T05:41:30.686Z,11.60
2019-04-22T05:43:58.536Z,12.07
2019-04-22T05:46:28.591Z,12.93
2019-04-22T05:49:14.887Z,10.77
2019-04-22T05:51:29.365Z,36.20
2019-04-22T05:53:59.037Z,23.07
2019-04-22T05:56:37.521Z,10.17
2019-04-22T05:58:58.284Z,10.20
2019-04-22T06:06:18.056Z,9.77
2019-04-22T06:08:51.263Z,9.97
2019-04-22T06:11:31.296Z,12.83
2019-04-22T06:13:50.029Z,19.50
2019-04-22T06:16:20.467Z,14.20
2019-04-22T06:18:52.732Z,26.67
2019-04-22T06:23:55.892Z,22.67
2019-04-22T06:28:48.158Z,14.27
2019-04-22T06:31:28.222Z,18.87
2019-04-22T06:33:48.452Z,14.93
2019-04-22T06:36:21.118Z,23.87
2019-04-22T06:39:05.274Z,16.80
2019-04-22T06:41:14.655Z,14.70
2019-04-22T06:43:44.636Z,14.07
2019-04-22T06:46:14.690Z,12.97
2019-04-22T06:48:39.801Z,11.93
2019-04-22T06:51:12.355Z,10.53
2019-04-22T06:53:40.484Z,20.17
2019-04-22T06:56:12.476Z,15.07
2019-04-22T06:58:39.514Z,11.17
2019-04-22T07:01:09.841Z,11.30
2019-04-22T07:03:42.682Z,11.17
2019-04-22T07:06:08.050Z,10.47
2019-04-22T07:09:09.354Z,10.17
2019-04-22T07:11:04.631Z,9.73
2019-04-22T07:13:37.456Z,9.77
2019-04-22T07:16:18.791Z,9.33
2019-04-22T07:21:01.343Z,11.00
2019-04-22T07:23:33.338Z,8.70
2019-04-22T07:26:00.254Z,32.87
2019-04-22T07:28:34.421Z,15.30
2019-04-22T07:31:02.397Z,8.57
2019-04-22T07:45:56.843Z,5.47
2019-04-22T07:53:25.947Z,4.47
2019-04-22T07:55:51.808Z,4.40
2019-04-22T08:00:46.196Z,6.30
2019-04-22T08:03:42.129Z,7.50
2019-04-22T08:05:58.645Z,5.13
2019-04-22T08:08:26.149Z,5.53
2019-04-22T08:10:48.586Z,7.60
2019-04-22T08:13:16.951Z,5.13
2019-04-22T08:15:48.518Z,7.00
2019-04-22T08:18:17.762Z,4.23
2019-04-22T08:20:58.375Z,4.70
2019-04-22T08:23:19.103Z,8.48
2019-04-22T08:25:46.151Z,6.30
2019-04-22T08:28:19.830Z,7.45
2019-04-22T08:33:16.133Z,6.85
2019-04-22T08:38:11.639Z,5.80
2019-04-22T08:40:43.291Z,6.00
2019-04-22T08:43:20.916Z,5.58
2019-04-22T08:45:46.797Z,5.10
2019-04-22T08:48:12.613Z,4.95
2019-04-22T08:50:39.420Z,6.12
2019-04-22T08:53:08.357Z,6.10
2019-04-22T08:55:40.529Z,5.28
2019-04-22T08:58:25.624Z,4.90
2019-04-22T09:00:39.636Z,5.10
2019-04-22T09:03:04.789Z,5.62
2019-04-22T09:05:48.715Z,5.47
2019-04-22T09:10:25.723Z,5.10
2019-04-22T09:15:31.133Z,5.17
2019-04-22T09:18:06.813Z,5.30
2019-04-22T09:20:32.556Z,5.22
2019-04-22T09:23:07.687Z,5.03
2019-04-22T09:25:40.246Z,5.10
2019-04-22T09:28:08.713Z,4.50
2019-04-22T09:33:14.489Z,4.85
2019-04-22T09:38:31.218Z,4.78
2019-04-22T09:40:47.053Z,4.58
2019-04-22T09:43:24.455Z,5.55
2019-04-22T09:45:47.727Z,4.97
2019-04-22T09:48:23.194Z,4.70
2019-04-22T09:50:52.005Z,4.53
2019-04-22T09:53:29.724Z,4.70
2019-04-22T09:55:56.785Z,4.42
2019-04-22T09:58:38.564Z,4.40
2019-04-22T10:01:18.692Z,4.60
2019-04-22T10:03:49.741Z,4.80
2019-04-22T10:06:22.864Z,6.25
2019-04-22T10:11:24.711Z,4.40
2019-04-22T10:13:53.642Z,4.80
2019-04-22T10:16:25.337Z,4.55
2019-04-22T10:18:54.463Z,5.37
2019-04-22T10:21:35.801Z,4.50
2019-04-22T10:24:01.750Z,4.65
2019-04-22T10:26:28.311Z,4.95
2019-04-22T10:29:03.461Z,4.25
2019-04-22T10:31:46.239Z,5.25
2019-04-22T10:33:53.167Z,5.00
2019-04-22T10:36:09.779Z,4.70
2019-04-22T10:38:40.228Z,6.70
2019-04-22T10:41:10.405Z,4.83
2019-04-22T10:43:41.224Z,5.08
2019-04-22T10:46:12.119Z,4.17
2019-04-22T10:48:42.474Z,4.37
2019-04-22T10:51:12.730Z,4.42
2019-04-22T10:53:43.814Z,4.08
2019-04-22T10:56:14.918Z,4.53
2019-04-22T10:58:44.749Z,4.60
2019-04-22T11:01:15.853Z,4.05
2019-04-22T11:03:45.734Z,7.05
2019-04-22T11:06:17.044Z,4.40
2019-04-22T11:08:53.983Z,4.45
2019-04-22T11:11:30.206Z,4.15
2019-04-22T11:13:49.784Z,3.87
2019-04-22T11:16:21.402Z,4.00
2019-04-22T11:18:51.715Z,4.20
2019-04-22T11:21:21.629Z,3.70
2019-04-22T11:23:52.491Z,4.35
2019-04-22T11:26:23.773Z,4.60
2019-04-22T11:28:55.877Z,5.35
2019-04-22T11:31:26.394Z,4.80
2019-04-22T11:33:56.647Z,3.80
2019-04-22T11:36:30.134Z,3.40
2019-04-22T11:39:02.012Z,3.95
2019-04-22T11:41:29.339Z,4.12
2019-04-22T11:43:59.152Z,4.58
2019-04-22T11:46:29.779Z,3.83
2019-04-22T11:49:00.316Z,3.75
2019-04-22T11:51:31.801Z,3.75
2019-04-22T11:54:02.915Z,5.00
2019-04-22T11:56:32.914Z,5.33
2019-04-22T11:59:02.736Z,5.28
2019-04-22T12:01:33.195Z,4.37
2019-04-22T12:04:04.050Z,4.60
2019-04-22T12:06:35.832Z,6.00
2019-04-22T12:09:13.509Z,6.67
2019-04-22T12:11:44.415Z,4.90
2019-04-22T12:14:15.895Z,3.98
2019-04-22T12:16:45.796Z,4.00
2019-04-22T12:19:16.272Z,6.60
2019-04-22T12:21:46.834Z,4.65
2019-04-22T12:24:17.275Z,5.95
2019-04-22T12:26:48.302Z,4.58
2019-04-22T12:29:17.992Z,4.08
2019-04-22T12:31:49.345Z,5.78
2019-04-22T12:34:19.639Z,6.90
2019-04-22T12:36:50.755Z,6.83
2019-04-22T12:39:21.314Z,3.83
2019-04-22T12:41:52.139Z,4.22
2019-04-22T12:44:22.222Z,4.83
2019-04-22T12:46:52.285Z,4.58
2019-04-22T12:49:22.518Z,4.65
2019-04-22T12:51:52.315Z,8.85
2019-04-22T12:54:21.857Z,5.12
2019-04-22T12:56:51.554Z,5.20
2019-04-22T12:59:21.568Z,3.87
2019-04-22T13:01:51.374Z,4.55
2019-04-22T13:04:23.163Z,3.90
2019-04-22T13:06:53.436Z,3.62
2019-04-22T13:09:23.386Z,4.33
2019-04-22T13:11:53.053Z,5.10
2019-04-22T13:14:23.240Z,5.15
2019-04-22T13:16:54.853Z,3.67
2019-04-22T13:19:26.460Z,4.15
2019-04-22T13:21:56.617Z,4.55
2019-04-22T13:24:27.850Z,5.62
2019-04-22T13:26:59.078Z,7.22
2019-04-22T13:29:28.728Z,3.27
2019-04-22T13:32:00.421Z,5.08
2019-04-22T13:34:37.758Z,3.83
2019-04-22T13:37:03.107Z,4.40
2019-04-22T13:39:32.940Z,4.37
2019-04-22T13:42:05.982Z,5.30
2019-04-22T13:44:35.597Z,5.15
2019-04-22T13:47:19.789Z,4.53
2019-04-22T13:50:13.593Z,4.03
2019-04-22T13:55:05.331Z,5.90
2019-04-22T13:57:32.993Z,5.78
2019-04-22T13:59:48.626Z,3.85
2019-04-22T14:02:16.907Z,4.25
2019-04-22T14:04:48.463Z,3.27
2019-04-22T14:07:18.990Z,3.83
2019-04-22T14:09:48.800Z,3.98
2019-04-22T14:12:21.304Z,5.97
2019-04-22T14:14:52.148Z,4.92
2019-04-22T14:17:21.178Z,4.37
2019-04-22T14:19:51.037Z,3.45
2019-04-22T14:22:22.023Z,4.12
2019-04-22T14:24:52.387Z,5.60
2019-04-22T14:27:37.298Z,3.22
2019-04-22T14:29:53.732Z,3.62
2019-04-22T14:32:27.467Z,3.35
2019-04-22T14:34:55.322Z,4.65
2019-04-22T14:37:25.134Z,2.92
2019-04-22T14:39:55.791Z,4.00
2019-04-22T14:42:44.051Z,2.65
2019-04-22T14:45:25.547Z,2.10
2019-04-22T14:47:55.993Z,3.15
2019-04-22T14:50:23.718Z,2.50
2019-04-22T14:52:50.707Z,2.17
2019-04-22T14:55:12.638Z,2.42
2019-04-22T14:57:35.524Z,3.30
2019-04-22T15:00:11.522Z,2.98
2019-04-22T15:02:41.816Z,2.30
2019-04-22T15:05:14.462Z,2.20
2019-04-22T15:07:44.568Z,2.83
2019-04-22T15:10:18.014Z,3.12
2019-04-22T15:12:50.235Z,4.17
2019-04-22T15:15:44.201Z,2.80
2019-04-22T15:18:23.987Z,3.30
2019-04-22T15:20:56.528Z,2.40
2019-04-22T15:23:26.795Z,2.15
2019-04-22T15:25:56.831Z,1.75
2019-04-22T15:28:27.175Z,2.55
2019-04-22T15:30:57.467Z,2.10
2019-04-22T15:33:29.538Z,2.02
2019-04-22T15:35:59.387Z,3.50
2019-04-22T15:38:30.229Z,3.37
2019-04-22T15:41:00.990Z,2.50
2019-04-22T15:43:33.297Z,1.90
2019-04-22T15:46:03.797Z,1.77
2019-04-22T15:48:34.737Z,2.70
2019-04-22T15:51:06.836Z,2.00
2019-04-22T15:53:37.820Z,2.25
2019-04-22T15:56:08.535Z,2.20
2019-04-22T15:58:39.635Z,1.92
2019-04-22T16:01:17.748Z,2.42
2019-04-22T16:03:40.950Z,2.12
2019-04-22T16:06:10.515Z,2.08
2019-04-22T16:08:41.150Z,3.00
2019-04-22T16:11:11.721Z,2.55
2019-04-22T16:13:42.329Z,1.98
2019-04-22T16:16:12.438Z,4.05
2019-04-22T16:18:42.273Z,2.95
2019-04-22T16:21:13.102Z,6.17
2019-04-22T16:23:42.879Z,2.33
2019-04-22T16:26:20.311Z,3.15
2019-04-22T16:28:53.719Z,4.28
2019-04-22T16:31:21.947Z,2.10
2019-04-22T16:33:52.481Z,2.83
2019-04-22T16:36:22.777Z,2.72
2019-04-22T16:38:53.237Z,2.50
2019-04-22T16:41:24.554Z,3.40
2019-04-22T16:43:54.410Z,3.62
2019-04-22T16:46:25.285Z,5.17
2019-04-22T16:48:56.011Z,2.15
2019-04-22T16:51:27.641Z,2.87
2019-04-22T16:53:58.015Z,2.20
2019-04-22T16:56:29.650Z,3.20
2019-04-22T16:59:00.976Z,3.27
2019-04-22T17:01:43.254Z,3.92
2019-04-22T17:04:24.850Z,2.02
2019-04-22T17:06:55.463Z,2.08
2019-04-22T17:09:25.791Z,2.25
2019-04-22T17:11:56.200Z,4.50
2019-04-22T17:14:34.904Z,2.42
2019-04-22T17:16:57.660Z,3.05
2019-04-22T17:19:29.123Z,2.42
2019-04-22T17:21:59.567Z,2.20
2019-04-22T17:24:29.993Z,3.90
2019-04-22T17:27:00.144Z,2.87
2019-04-22T17:29:30.428Z,3.17
2019-04-22T17:32:06.425Z,4.40
2019-04-22T17:34:31.982Z,3.12
2019-04-22T17:37:04.120Z,2.97
2019-04-22T17:39:45.195Z,4.20
2019-04-22T17:42:25.197Z,4.12
2019-04-22T17:45:07.595Z,4.13
2019-04-22T17:47:30.253Z,2.83
2019-04-22T17:50:11.813Z,3.35
2019-04-22T17:52:42.214Z,5.97
2019-04-22T17:55:12.669Z,5.17
2019-04-22T17:57:46.351Z,4.37
2019-04-22T18:00:15.329Z,4.50
2019-04-22T18:02:45.743Z,3.80
2019-04-22T18:05:03.472Z,3.57
2019-04-22T18:07:52.179Z,4.00
2019-04-22T18:10:32.455Z,3.30
2019-04-22T18:13:01.896Z,3.60
2019-04-22T18:15:23.986Z,5.70
2019-04-22T18:18:00.879Z,6.30
2019-04-22T18:20:24.086Z,4.03
2019-04-22T18:22:54.779Z,5.80
2019-04-22T18:25:29.489Z,3.00
2019-04-22T18:28:13.485Z,4.43
2019-04-22T18:30:28.785Z,4.57
2019-04-22T18:33:07.604Z,3.90
2019-04-22T18:35:39.374Z,3.50
2019-04-22T18:38:18.134Z,2.57
2019-04-22T18:40:45.864Z,3.10
2019-04-22T18:43:16.939Z,3.27
2019-04-22T18:45:55.023Z,4.00
2019-04-22T18:48:08.944Z,3.77
2019-04-22T18:51:09.639Z,3.87
2019-04-22T18:53:52.012Z,3.93
2019-04-22T18:56:16.700Z,3.63
2019-04-22T18:58:42.002Z,4.07
2019-04-22T19:00:57.762Z,3.70
2019-04-22T19:03:31.709Z,4.43
2019-04-22T19:06:31.905Z,6.67
2019-04-22T19:08:55.678Z,5.10
2019-04-22T19:11:22.375Z,2.67
2019-04-22T19:16:40.021Z,3.40
2019-04-22T19:19:20.951Z,4.50
2019-04-22T19:21:26.296Z,4.63
2019-04-22T19:24:03.132Z,3.10
2019-04-22T19:26:44.296Z,6.40
2019-04-22T19:29:00.249Z,4.63
2019-04-22T19:31:34.896Z,7.93
2019-04-22T19:34:09.361Z,2.93
2019-04-22T19:36:40.895Z,6.90
2019-04-22T19:39:04.314Z,5.00
2019-04-22T19:41:41.020Z,2.53
2019-04-22T19:44:14.547Z,4.63
2019-04-22T19:46:54.621Z,3.90
2019-04-22T19:49:23.817Z,7.67
2019-04-22T19:51:58.836Z,10.63
2019-04-22T19:54:17.408Z,5.30
2019-04-22T19:56:42.788Z,3.87
2019-04-22T19:59:14.919Z,3.23
2019-04-22T20:02:00.715Z,2.10
2019-04-22T20:07:09.855Z,3.20
2019-04-22T20:09:49.482Z,3.47
2019-04-22T20:12:12.956Z,2.57
2019-04-22T20:14:48.090Z,3.37
2019-04-22T20:17:19.343Z,3.27
2019-04-22T20:19:55.295Z,5.47
2019-04-22T20:22:17.751Z,3.60
2019-04-22T20:24:43.538Z,2.97
2019-04-22T20:27:22.464Z,3.10
2019-04-22T20:29:58.271Z,4.00
2019-04-22T20:32:29.243Z,1.93
2019-04-22T20:35:04.099Z,3.03
2019-04-22T20:37:35.657Z,2.57
2019-04-22T20:40:00.271Z,3.45
2019-04-22T20:42:46.688Z,2.27
2019-04-22T20:45:09.612Z,1.63
2019-04-22T20:47:32.221Z,2.40
2019-04-22T20:50:15.739Z,3.33
2019-04-22T20:52:46.807Z,2.93
2019-04-22T20:55:07.745Z,3.27
2019-04-22T20:57:47.758Z,25.83
2019-04-22T21:00:08.883Z,5.07
2019-04-22T21:02:39.101Z,3.80
2019-04-22T21:05:13.457Z,3.43
2019-04-22T21:07:49.882Z,2.10
2019-04-22T21:10:15.795Z,2.87
2019-04-22T21:12:42.826Z,3.47
2019-04-22T21:15:29.072Z,2.47
2019-04-22T21:17:53.501Z,2.43
2019-04-22T21:20:33.391Z,1.73
2019-04-22T21:23:02.302Z,3.73
2019-04-22T21:25:24.252Z,6.47
2019-04-22T21:28:04.594Z,3.10
2019-04-22T21:30:31.945Z,2.10
2019-04-22T21:33:05.532Z,2.37
2019-04-22T21:35:57.987Z,3.73
2019-04-22T21:38:09.782Z,3.60
2019-04-22T21:40:40.377Z,1.90
2019-04-22T21:43:12.031Z,3.23
2019-04-22T21:45:39.264Z,3.13
2019-04-22T21:48:28.116Z,2.60
2019-04-22T21:50:58.042Z,3.73
2019-04-22T21:53:25.235Z,2.83
2019-04-22T21:56:10.165Z,1.90
2019-04-22T21:58:49.510Z,2.10
2019-04-22T22:01:28.884Z,2.27
2019-04-22T22:03:57.271Z,2.77
2019-04-22T22:06:15.177Z,2.20
2019-04-22T22:08:56.886Z,2.37
2019-04-22T22:11:24.087Z,4.17
2019-04-22T22:13:59.199Z,3.70
2019-04-22T22:16:30.798Z,4.10
2019-04-22T22:19:08.099Z,4.80
2019-04-22T22:21:43.964Z,7.17
2019-04-22T22:24:10.036Z,4.37
2019-04-22T22:26:39.959Z,5.63
2019-04-22T22:31:47.136Z,2.60
2019-04-22T22:34:15.157Z,4.20
2019-04-22T22:36:36.691Z,3.90
2019-04-22T22:39:08.733Z,4.60
2019-04-22T22:41:25.965Z,4.43
2019-04-22T22:44:03.333Z,2.47
2019-04-22T22:46:39.244Z,2.10
2019-04-22T22:49:24.757Z,2.00
2019-04-22T22:51:53.291Z,2.80
2019-04-22T22:54:23.988Z,2.23
2019-04-22T22:57:01.649Z,2.23
2019-04-22T22:59:29.372Z,1.87
2019-04-22T23:01:54.515Z,2.03
2019-04-22T23:04:35.631Z,1.97
2019-04-22T23:07:00.427Z,1.80
2019-04-22T23:09:30.914Z,4.40
2019-04-22T23:12:30.286Z,2.53
2019-04-22T23:14:38.211Z,3.07
2019-04-22T23:16:55.584Z,3.03
2019-04-22T23:19:19.898Z,2.57
2019-04-22T23:21:52.715Z,6.23
2019-04-22T23:24:58.534Z,2.27
2019-04-22T23:27:40.147Z,3.83
2019-04-22T23:30:20.894Z,2.97
2019-04-22T23:32:58.138Z,3.03
2019-04-22T23:35:36.904Z,3.13
2019-04-22T23:38:13.783Z,3.17
2019-04-22T23:40:42.522Z,4.47
2019-04-22T23:43:23.820Z,1.97
2019-04-22T23:46:02.906Z,2.67
2019-04-22T23:48:25.989Z,1.73
2019-04-22T23:51:03.373Z,2.30
2019-04-22T23:53:57.613Z,1.73
2019-04-22T23:56:09.204Z,4.63
